createdAt,value
2024-02-21T00:04:30.668Z,97492.44
2024-02-21T00:09:33.632Z,97489.72
2024-02-21T00:14:37.835Z,97483.22
2024-02-21T00:19:41.077Z,97475.88
2024-02-21T00:24:44.032Z,97466.13
2024-02-21T00:29:48.236Z,97465.31
2024-02-21T00:34:51.170Z,97455.81
2024-02-21T00:39:56.000Z,97460.06
2024-02-21T00:45:00.437Z,97442.19
2024-02-21T00:50:04.383Z,97449.72
2024-02-21T00:55:10.425Z,97444.88
2024-02-21T01:00:15.867Z,97442.75
2024-02-21T01:05:19.255Z,97444.97
2024-02-21T01:10:22.459Z,97427.31
2024-02-21T01:15:26.866Z,97419.44
2024-02-21T01:20:29.818Z,97423.22
2024-02-21T01:25:32.738Z,97410.16
2024-02-21T01:30:37.097Z,97396.84
2024-02-21T01:35:40.202Z,97384.66
2024-02-21T01:40:43.314Z,97382.75
2024-02-21T01:45:50.609Z,97370.59
2024-02-21T01:50:54.018Z,97375.50
2024-02-21T01:55:56.958Z,97381.19
2024-02-21T02:01:01.679Z,97373.03
2024-02-21T02:06:06.369Z,97370.59
2024-02-21T02:11:09.410Z,97368.13
2024-02-21T02:16:13.769Z,97355.09
2024-02-21T02:21:26.364Z,97338.84
2024-02-21T02:26:30.565Z,97341.53
2024-02-21T02:31:33.536Z,97348.34
2024-02-21T02:36:36.501Z,97342.09
2024-02-21T02:41:40.713Z,97331.50
2024-02-21T02:46:43.668Z,97319.56
2024-02-21T02:51:46.586Z,97316.00
2024-02-21T02:56:52.720Z,97312.16
2024-02-21T03:01:55.650Z,97295.13
2024-02-21T03:06:58.625Z,97285.34
2024-02-21T03:12:04.728Z,97276.16
2024-02-21T03:17:07.640Z,97263.72
2024-02-21T03:22:10.520Z,97261.00
2024-02-21T03:27:14.812Z,97268.31
2024-02-21T03:32:17.770Z,97257.19
2024-02-21T03:37:20.693Z,97256.09
2024-02-21T03:42:24.994Z,97254.22
2024-02-21T03:47:28.129Z,97261.78
2024-02-21T03:52:31.085Z,97257.97
2024-02-21T03:57:35.366Z,97250.94
2024-02-21T04:02:38.245Z,97247.97
2024-02-21T04:07:41.392Z,97231.16
2024-02-21T04:12:45.677Z,97240.63
2024-02-21T04:17:48.709Z,97238.16
2024-02-21T04:22:51.865Z,97235.69
2024-02-21T04:27:56.091Z,97226.78
2024-02-21T04:32:58.992Z,97235.47
2024-02-21T04:38:02.091Z,97231.91
2024-02-21T04:43:06.473Z,97216.25
2024-02-21T04:48:09.466Z,97206.22
2024-02-21T04:53:12.368Z,97202.41
2024-02-21T04:58:16.632Z,97199.41
2024-02-21T05:03:19.560Z,97200.16
2024-02-21T05:08:22.461Z,97197.69
2024-02-21T05:13:27.016Z,97183.91
2024-02-21T05:18:30.153Z,97185.56
2024-02-21T05:23:33.236Z,97186.16
2024-02-21T05:28:37.593Z,97189.91
2024-02-21T05:33:40.584Z,97184.47
2024-02-21T05:38:43.483Z,97184.28
2024-02-21T05:43:47.724Z,97186.25
2024-02-21T05:48:50.729Z,97182.53
2024-02-21T05:53:53.706Z,97181.03
2024-02-21T05:58:58.326Z,97168.91
2024-02-21T06:04:01.396Z,97181.13
2024-02-21T06:09:04.814Z,97183.91
2024-02-21T06:14:09.060Z,97190.16
2024-02-21T06:19:12.047Z,97188.25
2024-02-21T06:24:14.946Z,97183.34
2024-02-21T06:29:19.231Z,97186.28
2024-02-21T06:34:22.700Z,97190.91
2024-02-21T06:39:25.966Z,97195.47
2024-02-21T06:44:30.673Z,97192.28
2024-02-21T06:49:33.690Z,97200.16
2024-02-21T06:54:36.640Z,97201.84
2024-02-21T06:59:40.841Z,97208.63
2024-02-21T07:04:44.898Z,97211.63
2024-02-21T07:09:49.876Z,97220.91
2024-02-21T07:14:54.090Z,97211.13
2024-02-21T07:19:58.079Z,97209.50
2024-02-21T07:25:03.696Z,97211.63
2024-02-21T07:30:12.280Z,97209.75
2024-02-21T07:35:16.588Z,97213.28
2024-02-21T07:40:19.716Z,97213.03
2024-02-21T07:45:25.162Z,97216.63
2024-02-21T07:50:28.346Z,97205.50
2024-02-21T07:55:31.384Z,97212.31
2024-02-21T08:00:35.951Z,97201.75
2024-02-21T08:05:38.875Z,97213.69
2024-02-21T08:10:41.857Z,97201.78
2024-02-21T08:15:46.228Z,97193.06
2024-02-21T08:20:49.266Z,97200.94
2024-02-21T08:25:52.192Z,97199.59
2024-02-21T08:30:56.437Z,97196.03
2024-02-21T08:35:59.413Z,97192.63
2024-02-21T08:41:02.443Z,97190.72
2024-02-21T08:46:07.525Z,97186.00
2024-02-21T08:51:10.609Z,97178.66
2024-02-21T08:56:14.004Z,97178.06
2024-02-21T09:01:18.314Z,97184.09
2024-02-21T09:06:21.963Z,97180.47
2024-02-21T09:11:24.970Z,97181.66
2024-02-21T09:16:29.277Z,97170.59
2024-02-21T09:21:32.240Z,97175.75
2024-02-21T09:26:35.582Z,97169.25
2024-02-21T09:31:40.744Z,97175.78
2024-02-21T09:36:44.668Z,97168.69
2024-02-21T09:41:49.558Z,97165.19
2024-02-21T09:46:58.311Z,97171.22
2024-02-21T09:52:07.034Z,97153.88
2024-02-21T09:57:10.268Z,97149.53
2024-02-21T10:02:14.723Z,97143.28
2024-02-21T10:07:17.771Z,97146.28
2024-02-21T10:12:20.676Z,97136.00
2024-02-21T10:17:24.979Z,97135.97
2024-02-21T10:22:29.432Z,97127.56
2024-02-21T10:27:32.974Z,97117.25
2024-02-21T10:32:37.247Z,97114.22
2024-02-21T10:37:40.234Z,97102.25
2024-02-21T10:42:43.933Z,97083.81
2024-02-21T10:47:52.396Z,97083.56
2024-02-21T10:53:03.640Z,97074.06
2024-02-21T10:58:06.808Z,97063.47
2024-02-21T11:03:11.655Z,97044.97
2024-02-21T11:08:15.200Z,97043.34
2024-02-21T11:13:18.880Z,97036.28
2024-02-21T11:18:29.743Z,97021.63
2024-02-21T11:23:32.847Z,97006.97
2024-02-21T11:28:37.443Z,97003.97
2024-02-21T11:33:43.189Z,96987.94
2024-02-21T11:38:46.596Z,96984.97
2024-02-21T11:43:50.997Z,96965.13
2024-02-21T11:48:55.377Z,96954.53
2024-02-21T11:54:01.934Z,96940.69
2024-02-21T11:59:07.748Z,96935.00
2024-02-21T12:04:12.420Z,96919.22
2024-02-21T12:09:16.505Z,96908.66
2024-02-21T12:14:19.495Z,96900.22
2024-02-21T12:19:24.113Z,96894.25
2024-02-21T12:24:28.221Z,96867.94
2024-02-21T12:29:31.393Z,96866.00
2024-02-21T12:34:44.449Z,96853.50
2024-02-21T12:39:56.174Z,96844.28
2024-02-21T12:44:59.192Z,96833.69
2024-02-21T12:50:04.878Z,96818.72
2024-02-21T12:55:09.807Z,96801.34
2024-02-21T13:00:13.804Z,96788.84
2024-02-21T13:05:18.262Z,96776.28
2024-02-21T13:10:21.279Z,96766.53
2024-02-21T13:15:24.306Z,96754.56
2024-02-21T13:20:29.874Z,96731.75
2024-02-21T13:25:32.987Z,96727.69
2024-02-21T13:30:35.950Z,96719.50
2024-02-21T13:35:40.365Z,96707.34
2024-02-21T13:40:44.047Z,96694.28
2024-02-21T13:45:58.275Z,96684.75
2024-02-21T13:51:03.402Z,96682.78
2024-02-21T13:56:06.994Z,96676.78
2024-02-21T14:01:10.793Z,96650.81
2024-02-21T14:06:15.144Z,96648.56
2024-02-21T14:11:18.147Z,96648.03
2024-02-21T14:16:21.144Z,96627.91
2024-02-21T14:21:25.485Z,96618.41
2024-02-21T14:26:28.446Z,96600.03
2024-02-21T14:31:31.833Z,96607.81
2024-02-21T14:36:36.084Z,96596.69
2024-02-21T14:41:40.778Z,96601.34
2024-02-21T14:46:43.705Z,96595.31
2024-02-21T14:51:47.968Z,96577.16
2024-02-21T14:56:51.062Z,96589.59
2024-02-21T15:01:53.960Z,96572.47
2024-02-21T15:06:58.152Z,96552.34
2024-02-21T15:12:01.102Z,96550.50
2024-02-21T15:17:04.094Z,96557.78
2024-02-21T15:22:08.348Z,96538.53
2024-02-21T15:27:11.284Z,96549.97
2024-02-21T15:32:14.354Z,96543.47
2024-02-21T15:37:18.740Z,96535.50
2024-02-21T15:42:22.125Z,96544.25
2024-02-21T15:47:25.043Z,96530.09
2024-02-21T15:52:29.384Z,96522.00
2024-02-21T15:57:33.481Z,96521.78
2024-02-21T16:02:36.375Z,96509.03
2024-02-21T16:07:40.668Z,96519.91
2024-02-21T16:12:43.586Z,96520.56
2024-02-21T16:17:46.552Z,96511.34
2024-02-21T16:22:50.879Z,96512.41
2024-02-21T16:27:54.182Z,96518.84
2024-02-21T16:32:57.422Z,96509.66
2024-02-21T16:38:03.473Z,96511.09
2024-02-21T16:43:06.929Z,96495.50
2024-02-21T16:48:10.275Z,96500.41
2024-02-21T16:53:15.447Z,96487.88
2024-02-21T16:58:18.526Z,96481.31
2024-02-21T17:03:22.440Z,96482.91
2024-02-21T17:08:27.234Z,96474.91
2024-02-21T17:13:30.151Z,96471.06
2024-02-21T17:18:33.176Z,96470.41
2024-02-21T17:23:37.597Z,96466.13
2024-02-21T17:28:40.516Z,96464.81
2024-02-21T17:33:43.586Z,96465.41
2024-02-21T17:38:49.453Z,96464.88
2024-02-21T17:43:53.001Z,96458.28
2024-02-21T17:48:56.052Z,96459.44
2024-02-21T17:54:00.414Z,96461.66
2024-02-21T17:59:03.724Z,96455.47
2024-02-21T18:04:07.066Z,96458.22
2024-02-21T18:09:11.389Z,96457.16
2024-02-21T18:14:14.348Z,96452.31
2024-02-21T18:19:20.597Z,96449.63
2024-02-21T18:24:25.050Z,96432.03
2024-02-21T18:29:37.885Z,96432.06
2024-02-21T18:34:42.914Z,96436.44
2024-02-21T18:39:47.716Z,96437.00
2024-02-21T18:44:51.428Z,96438.66
2024-02-21T18:49:54.519Z,96434.91
2024-02-21T18:54:59.529Z,96441.69
2024-02-21T19:00:08.013Z,96439.28
2024-02-21T19:05:11.207Z,96432.78
2024-02-21T19:10:15.897Z,96429.81
2024-02-21T19:15:18.830Z,96421.19
2024-02-21T19:20:21.782Z,96407.38
2024-02-21T19:25:26.888Z,96409.50
2024-02-21T19:30:31.239Z,96398.41
2024-02-21T19:35:34.349Z,96395.44
2024-02-21T19:40:38.615Z,96395.72
2024-02-21T19:45:41.615Z,96391.41
2024-02-21T19:50:44.618Z,96386.25
2024-02-21T19:55:48.977Z,96383.53
2024-02-21T20:00:52.140Z,96380.03
2024-02-21T20:05:55.215Z,96373.81
2024-02-21T20:10:59.808Z,96371.09
2024-02-21T20:16:03.454Z,96378.72
2024-02-21T20:21:07.112Z,96375.19
2024-02-21T20:26:11.378Z,96368.69
2024-02-21T20:31:20.559Z,96360.81
2024-02-21T20:36:23.450Z,96367.88
2024-02-21T20:41:27.736Z,96357.03
2024-02-21T20:46:30.704Z,96355.41
2024-02-21T20:51:33.639Z,96355.44
2024-02-21T20:56:38.136Z,96344.31
2024-02-21T21:01:47.009Z,96345.38
2024-02-21T21:06:54.102Z,96342.41
2024-02-21T21:11:58.508Z,96343.78
2024-02-21T21:17:05.043Z,96332.16
2024-02-21T21:22:08.568Z,96323.19
2024-02-21T21:27:14.794Z,96319.72
2024-02-21T21:32:17.817Z,96312.16
2024-02-21T21:37:21.717Z,96326.81
2024-02-21T21:42:26.168Z,96317.56
2024-02-21T21:47:29.115Z,96324.91
2024-02-21T21:52:32.624Z,96315.97
2024-02-21T21:57:36.950Z,96323.31
2024-02-21T22:02:40.208Z,96311.38
2024-02-21T22:07:43.240Z,96317.91
2024-02-21T22:12:47.529Z,96314.41
2024-02-21T22:17:50.505Z,96313.88
2024-02-21T22:22:53.802Z,96318.22
2024-02-21T22:27:58.034Z,96314.16
2024-02-21T22:33:01.091Z,96309.03
2024-02-21T22:38:04.824Z,96316.38
2024-02-21T22:43:09.879Z,96310.69
2024-02-21T22:48:12.847Z,96305.56
2024-02-21T22:53:15.835Z,96317.75
2024-02-21T22:58:22.830Z,96306.66
2024-02-21T23:03:25.882Z,96314.53
2024-02-21T23:08:28.967Z,96310.72
2024-02-21T23:13:33.760Z,96296.41
2024-02-21T23:18:37.949Z,96295.81
2024-02-21T23:23:40.906Z,96282.00
2024-02-21T23:28:45.464Z,96296.09
2024-02-21T23:33:48.534Z,96290.41
2024-02-21T23:38:51.591Z,96279.84
2024-02-21T23:43:59.057Z,96274.72
2024-02-21T23:49:03.440Z,96285.31
2024-02-21T23:54:06.437Z,96276.63
2024-02-21T23:59:10.741Z,96276.63
